Time;durP1;ratioP1;P1;durP2;ratioP2;P2;SDS_P1;SDS_P2;PMS_P1;PMS_P2;Temp;Humidity;BMP_temperature;BMP_pressure;BME280_temperature;BME280_humidity;BME280_pressure;Samples;Min_cycle;Max_cycle;Signal;HPM_P1;HPM_P2
2022/09/18 00:00:55;;;;;;;1.95;0.30;;;;;;;;;;5026181;28;20033;-47
2022/09/18 00:03:22;;;;;;;1.02;0.20;;;;;;;;;;5034007;28;20041;-46
2022/09/18 00:05:49;;;;;;;1.00;0.20;;;;;;;;;;5022710;28;20541;-44
2022/09/18 00:08:16;;;;;;;1.47;0.33;;;;;;;;;;5034941;28;20561;-45
2022/09/18 00:10:44;;;;;;;1.55;0.30;;;;;;;;;;5024399;28;20103;-43
2022/09/18 00:13:11;;;;;;;1.00;0.20;;;;;;;;;;5035331;28;20037;-47
2022/09/18 00:15:37;;;;;;;1.20;0.20;;;;;;;;;;5014450;28;20091;-46
2022/09/18 00:18:04;;;;;;;1.25;0.20;;;;;;;;;;5033746;28;20045;-47
2022/09/18 00:20:32;;;;;;;1.00;0.20;;;;;;;;;;5022585;28;20048;-45
2022/09/18 00:23:01;;;;;;;0.88;0.10;;;;;;;;;;5028013;28;20072;-43
2022/09/18 00:25:28;;;;;;;1.13;0.20;;;;;;;;;;5027891;28;20041;-45
2022/09/18 00:27:55;;;;;;;1.00;0.20;;;;;;;;;;5028439;28;20124;-44
2022/09/18 00:30:21;;;;;;;1.30;0.20;;;;;;;;;;5024375;28;20038;-41
2022/09/18 00:32:48;;;;;;;0.93;0.17;;;;;;;;;;5021362;28;20483;-46
2022/09/18 00:35:14;;;;;;;0.82;0.10;;;;;;;;;;5026626;28;21190;-44
2022/09/18 00:37:41;;;;;;;1.20;0.20;;;;;;;;;;5022526;28;20518;-43
2022/09/18 00:40:09;;;;;;;0.90;0.20;;;;;;;;;;5026537;28;20041;-44
2022/09/18 00:42:36;;;;;;;0.90;0.20;;;;;;;;;;5017684;28;20076;-43
2022/09/18 00:45:02;;;;;;;1.17;0.27;;;;;;;;;;5027116;28;20082;-43
2022/09/18 00:47:30;;;;;;;0.98;0.20;;;;;;;;;;5024566;28;20044;-44
2022/09/18 00:50:00;;;;;;;1.05;0.20;;;;;;;;;;5024404;28;20041;-48
2022/09/18 00:52:28;;;;;;;0.80;0.10;;;;;;;;;;5021537;28;20056;-46
2022/09/18 00:54:56;;;;;;;1.02;0.10;;;;;;;;;;5019027;28;20530;-45
2022/09/18 00:57:27;;;;;;;1.00;0.17;;;;;;;;;;5027048;28;20053;-44
2022/09/18 00:59:54;;;;;;;0.85;0.10;;;;;;;;;;5027809;28;20029;-43
2022/09/18 01:02:21;;;;;;;1.10;0.20;;;;;;;;;;5029813;28;20488;-46
2022/09/18 01:04:48;;;;;;;1.10;0.20;;;;;;;;;;5027550;28;20052;-47
2022/09/18 01:07:19;;;;;;;1.02;0.20;;;;;;;;;;5029343;28;20041;-45
2022/09/18 01:09:49;;;;;;;1.27;0.30;;;;;;;;;;5021770;28;20060;-45
2022/09/18 01:12:21;;;;;;;1.23;0.10;;;;;;;;;;5018794;28;20048;-45
2022/09/18 01:14:54;;;;;;;1.08;0.20;;;;;;;;;;5024957;28;20045;-44
2022/09/18 01:17:25;;;;;;;1.00;0.10;;;;;;;;;;5009360;28;20085;-44
2022/09/18 01:20:09;;;;;;;1.67;0.43;;;;;;;;;;5019838;28;20124;-46
2022/09/18 01:22:45;;;;;;;0.90;0.20;;;;;;;;;;5026596;28;20045;-44
2022/09/18 01:25:16;;;;;;;0.90;0.10;;;;;;;;;;5025863;28;20052;-44
2022/09/18 01:27:57;;;;;;;1.40;0.20;;;;;;;;;;5028509;28;20044;-44
2022/09/18 01:30:24;;;;;;;1.27;0.13;;;;;;;;;;5023701;28;20037;-46
2022/09/18 01:32:54;;;;;;;1.20;0.22;;;;;;;;;;5027569;28;20063;-43
2022/09/18 01:35:24;;;;;;;1.33;0.20;;;;;;;;;;5001730;28;20046;-45
2022/09/18 01:37:53;;;;;;;1.10;0.17;;;;;;;;;;5017426;28;20041;-44
2022/09/18 01:40:21;;;;;;;1.08;0.20;;;;;;;;;;5017024;28;20131;-45
2022/09/18 01:42:49;;;;;;;1.00;0.20;;;;;;;;;;5026027;28;20363;-48
2022/09/18 01:45:20;;;;;;;0.88;0.10;;;;;;;;;;5025600;28;20483;-46
2022/09/18 01:47:50;;;;;;;0.90;0.20;;;;;;;;;;5030706;28;20518;-49
2022/09/18 01:50:17;;;;;;;1.08;0.17;;;;;;;;;;5025932;28;20037;-45
2022/09/18 01:52:46;;;;;;;1.20;0.20;;;;;;;;;;5022220;28;20128;-44
2022/09/18 01:55:15;;;;;;;1.35;0.20;;;;;;;;;;5028629;28;20041;-44
2022/09/18 01:57:44;;;;;;;0.98;0.20;;;;;;;;;;5012980;28;20461;-45
2022/09/18 02:00:12;;;;;;;0.80;0.10;;;;;;;;;;5028170;28;20041;-44
2022/09/18 02:02:42;;;;;;;1.00;0.20;;;;;;;;;;5029886;28;20048;-49
2022/09/18 02:05:10;;;;;;;1.33;0.30;;;;;;;;;;5023540;28;20380;-45
2022/09/18 02:07:41;;;;;;;2.28;0.20;;;;;;;;;;5024615;28;20048;-45
2022/09/18 02:10:08;;;;;;;1.23;0.30;;;;;;;;;;5024046;28;20797;-45
2022/09/18 02:12:36;;;;;;;2.03;0.40;;;;;;;;;;5034935;28;20162;-45
2022/09/18 02:15:05;;;;;;;1.35;0.25;;;;;;;;;;5024696;28;20087;-44
2022/09/18 02:17:34;;;;;;;1.10;0.20;;;;;;;;;;5035112;28;20033;-45
2022/09/18 02:20:06;;;;;;;1.05;0.20;;;;;;;;;;5024994;28;20099;-46
2022/09/18 02:22:33;;;;;;;0.88;0.13;;;;;;;;;;5023205;28;20056;-44
2022/09/18 02:25:02;;;;;;;0.80;0.10;;;;;;;;;;5035251;28;20132;-45
2022/09/18 02:27:29;;;;;;;1.00;0.20;;;;;;;;;;5018110;28;20503;-45
2022/09/18 02:29:56;;;;;;;1.20;0.30;;;;;;;;;;5028162;28;20048;-44
2022/09/18 02:32:23;;;;;;;1.20;0.30;;;;;;;;;;5020081;28;20748;-49
2022/09/18 02:34:49;;;;;;;1.10;0.20;;;;;;;;;;5030330;28;20095;-46
2022/09/18 02:37:31;;;;;;;0.90;0.17;;;;;;;;;;5017084;28;20056;-43
2022/09/18 02:40:06;;;;;;;1.02;0.20;;;;;;;;;;5028031;28;20049;-43
2022/09/18 02:42:40;;;;;;;1.00;0.20;;;;;;;;;;5022391;28;20140;-43
2022/09/18 02:45:10;;;;;;;1.27;0.30;;;;;;;;;;5028586;28;20487;-48
2022/09/18 02:47:47;;;;;;;1.27;0.20;;;;;;;;;;5030194;28;20072;-47
2022/09/18 02:50:16;;;;;;;0.80;0.10;;;;;;;;;;5292443;22;20601;-39
2022/09/18 02:52:46;;;;;;;1.10;0.20;;;;;;;;;;4924278;28;20120;-39
2022/09/18 02:55:16;;;;;;;1.20;0.20;;;;;;;;;;4997811;28;20399;-40
2022/09/18 02:57:46;;;;;;;1.20;0.20;;;;;;;;;;5020669;28;20041;-39
2022/09/18 03:00:17;;;;;;;1.00;0.20;;;;;;;;;;5008865;28;20122;-40
2022/09/18 03:02:43;;;;;;;0.93;0.20;;;;;;;;;;4993404;28;20044;-40
2022/09/18 03:05:11;;;;;;;0.90;0.10;;;;;;;;;;5020399;28;20029;-40
2022/09/18 03:07:38;;;;;;;1.00;0.20;;;;;;;;;;4997577;28;20049;-41
2022/09/18 03:10:05;;;;;;;1.38;0.30;;;;;;;;;;5020451;28;20106;-41
2022/09/18 03:12:33;;;;;;;1.35;0.30;;;;;;;;;;5019505;28;22139;-41
2022/09/18 03:15:00;;;;;;;0.93;0.20;;;;;;;;;;5011073;28;20067;-40
2022/09/18 03:17:26;;;;;;;1.10;0.10;;;;;;;;;;5026643;28;20102;-39
2022/09/18 03:19:53;;;;;;;1.00;0.20;;;;;;;;;;5014115;28;20083;-39
2022/09/18 03:22:19;;;;;;;1.30;0.20;;;;;;;;;;5000477;28;20099;-41
2022/09/18 03:24:46;;;;;;;1.20;0.20;;;;;;;;;;5015391;28;20517;-39
2022/09/18 03:27:12;;;;;;;1.10;0.20;;;;;;;;;;5012266;28;20044;-44
2022/09/18 03:29:40;;;;;;;1.17;0.30;;;;;;;;;;5015718;28;20444;-43
2022/09/18 03:32:07;;;;;;;0.98;0.17;;;;;;;;;;5019515;28;20037;-42
2022/09/18 03:34:34;;;;;;;0.80;0.20;;;;;;;;;;5010950;28;20541;-41
2022/09/18 03:37:00;;;;;;;0.90;0.10;;;;;;;;;;5012165;28;20132;-41
2022/09/18 03:39:26;;;;;;;1.10;0.10;;;;;;;;;;5036730;28;20045;-40
2022/09/18 03:41:53;;;;;;;1.30;0.30;;;;;;;;;;5000759;28;20037;-41
2022/09/18 03:44:19;;;;;;;1.98;0.50;;;;;;;;;;5020312;28;20095;-40
2022/09/18 03:46:47;;;;;;;0.90;0.17;;;;;;;;;;5012319;28;20073;-42
2022/09/18 03:49:14;;;;;;;1.20;0.20;;;;;;;;;;5019102;28;20053;-41
2022/09/18 03:51:40;;;;;;;1.23;0.30;;;;;;;;;;5016024;28;20103;-40
2022/09/18 03:54:07;;;;;;;0.73;0.10;;;;;;;;;;5009980;28;20045;-42
2022/09/18 03:56:35;;;;;;;0.82;0.10;;;;;;;;;;5017470;28;20069;-40
2022/09/18 03:59:02;;;;;;;0.85;0.10;;;;;;;;;;4979257;28;20116;-41
2022/09/18 04:01:29;;;;;;;1.02;0.17;;;;;;;;;;5025338;28;20095;-41
2022/09/18 04:03:57;;;;;;;1.10;0.20;;;;;;;;;;5007634;28;20511;-41
2022/09/18 04:06:23;;;;;;;0.70;0.10;;;;;;;;;;5028916;28;20064;-40
2022/09/18 04:08:52;;;;;;;1.90;0.10;;;;;;;;;;5009985;28;20052;-41
2022/09/18 04:11:18;;;;;;;0.93;0.13;;;;;;;;;;5023999;28;20087;-41
2022/09/18 04:13:44;;;;;;;0.85;0.15;;;;;;;;;;5003290;28;20072;-40
2022/09/18 04:16:11;;;;;;;1.13;0.20;;;;;;;;;;5022300;28;20478;-41
2022/09/18 04:18:37;;;;;;;1.20;0.20;;;;;;;;;;5011744;28;20032;-40
2022/09/18 04:21:05;;;;;;;1.20;0.35;;;;;;;;;;5000016;28;20034;-40
2022/09/18 04:23:32;;;;;;;0.95;0.20;;;;;;;;;;5031009;28;20065;-40
2022/09/18 04:26:07;;;;;;;0.90;0.10;;;;;;;;;;4992664;28;20041;-40
2022/09/18 04:28:33;;;;;;;0.90;0.13;;;;;;;;;;5002734;28;20049;-41
2022/09/18 04:31:01;;;;;;;1.48;0.40;;;;;;;;;;5034477;28;20725;-40
2022/09/18 04:33:28;;;;;;;1.60;0.20;;;;;;;;;;5013591;28;20041;-41
2022/09/18 04:35:55;;;;;;;0.80;0.10;;;;;;;;;;5010539;28;20091;-40
2022/09/18 04:38:26;;;;;;;1.17;0.22;;;;;;;;;;5011430;28;20045;-40
2022/09/18 04:40:55;;;;;;;0.90;0.10;;;;;;;;;;5010837;28;20042;-40
2022/09/18 04:43:21;;;;;;;1.38;0.30;;;;;;;;;;4994900;28;20802;-40
2022/09/18 04:45:48;;;;;;;1.00;0.20;;;;;;;;;;5025035;28;20760;-40
2022/09/18 04:48:15;;;;;;;0.70;0.10;;;;;;;;;;5016119;28;20048;-41
2022/09/18 04:50:41;;;;;;;1.33;0.63;;;;;;;;;;5023602;28;20562;-40
2022/09/18 04:53:08;;;;;;;0.90;0.10;;;;;;;;;;5003202;28;20123;-40
2022/09/18 04:55:36;;;;;;;1.15;0.20;;;;;;;;;;5022372;28;20037;-43
2022/09/18 04:58:02;;;;;;;1.05;0.20;;;;;;;;;;5008225;28;20033;-40
2022/09/18 05:00:29;;;;;;;0.90;0.10;;;;;;;;;;5017982;28;20052;-41
2022/09/18 05:02:55;;;;;;;1.00;0.20;;;;;;;;;;5011258;28;20651;-41
2022/09/18 05:05:21;;;;;;;0.70;0.10;;;;;;;;;;5018611;28;20041;-41
2022/09/18 05:07:48;;;;;;;1.05;0.22;;;;;;;;;;5012424;28;20176;-40
2022/09/18 05:10:14;;;;;;;1.05;0.20;;;;;;;;;;5016106;28;20094;-41
2022/09/18 05:12:43;;;;;;;0.88;0.13;;;;;;;;;;5007468;28;20032;-40
2022/09/18 05:15:11;;;;;;;1.30;0.20;;;;;;;;;;5029243;28;20044;-41
2022/09/18 05:17:39;;;;;;;1.00;0.20;;;;;;;;;;4993137;28;20044;-40
2022/09/18 05:20:05;;;;;;;0.95;0.10;;;;;;;;;;5019345;28;20038;-41
2022/09/18 05:22:33;;;;;;;0.90;0.10;;;;;;;;;;4994380;28;20684;-40
2022/09/18 05:24:59;;;;;;;0.98;0.10;;;;;;;;;;5016023;28;20033;-40
2022/09/18 05:27:25;;;;;;;1.10;0.20;;;;;;;;;;5001790;28;20561;-39
2022/09/18 05:29:53;;;;;;;1.67;0.47;;;;;;;;;;5015229;28;20609;-41
2022/09/18 05:32:20;;;;;;;0.70;0.10;;;;;;;;;;5009931;28;20105;-40
2022/09/18 05:34:48;;;;;;;1.55;0.30;;;;;;;;;;5008875;28;20041;-40
2022/09/18 05:37:15;;;;;;;1.50;0.30;;;;;;;;;;5019853;28;20383;-40
2022/09/18 05:39:42;;;;;;;1.20;0.20;;;;;;;;;;5002808;28;20481;-42
2022/09/18 05:42:08;;;;;;;0.97;0.10;;;;;;;;;;5022413;28;20048;-40
2022/09/18 05:44:35;;;;;;;1.77;0.32;;;;;;;;;;5011469;28;20038;-40
2022/09/18 05:47:03;;;;;;;1.15;0.20;;;;;;;;;;5016395;28;20494;-40
2022/09/18 05:49:29;;;;;;;1.45;0.35;;;;;;;;;;5015215;28;20103;-40
2022/09/18 05:51:57;;;;;;;0.90;0.10;;;;;;;;;;5012081;28;20439;-41
2022/09/18 05:54:29;;;;;;;1.03;0.10;;;;;;;;;;5006386;28;20474;-41
2022/09/18 05:56:56;;;;;;;1.00;0.10;;;;;;;;;;5006827;28;20132;-43
2022/09/18 05:59:23;;;;;;;1.00;0.20;;;;;;;;;;5018445;28;20531;-43
2022/09/18 06:01:49;;;;;;;1.67;0.30;;;;;;;;;;5020540;28;20674;-40
2022/09/18 06:04:17;;;;;;;0.95;0.10;;;;;;;;;;5012875;28;20048;-40
2022/09/18 06:06:43;;;;;;;0.80;0.10;;;;;;;;;;5017379;28;26022;-43
2022/09/18 06:09:10;;;;;;;1.15;0.28;;;;;;;;;;5011757;28;20052;-42
2022/09/18 06:11:36;;;;;;;1.30;0.50;;;;;;;;;;5025117;28;20037;-41
2022/09/18 06:14:03;;;;;;;0.90;0.10;;;;;;;;;;5002943;28;20747;-42
2022/09/18 06:16:29;;;;;;;1.02;0.20;;;;;;;;;;5021603;28;20114;-42
2022/09/18 06:18:56;;;;;;;0.87;0.20;;;;;;;;;;5004160;28;20044;-40
2022/09/18 06:21:24;;;;;;;0.90;0.10;;;;;;;;;;5016523;28;20439;-40
2022/09/18 06:23:50;;;;;;;0.80;0.10;;;;;;;;;;5006882;28;20419;-40
2022/09/18 06:26:16;;;;;;;0.90;0.20;;;;;;;;;;5025447;28;20037;-39
2022/09/18 06:28:43;;;;;;;0.85;0.10;;;;;;;;;;5007311;28;20076;-40
2022/09/18 06:31:10;;;;;;;0.90;0.10;;;;;;;;;;5016339;28;20059;-40
2022/09/18 06:33:36;;;;;;;1.00;0.17;;;;;;;;;;5015711;28;20552;-40
2022/09/18 06:36:07;;;;;;;1.10;0.20;;;;;;;;;;5010466;28;20383;-40
2022/09/18 06:38:34;;;;;;;2.13;0.82;;;;;;;;;;5013765;28;20660;-42
2022/09/18 06:41:01;;;;;;;1.17;0.20;;;;;;;;;;5013490;28;20033;-41
2022/09/18 06:43:28;;;;;;;0.93;0.17;;;;;;;;;;5016871;28;20037;-40
2022/09/18 06:45:55;;;;;;;0.98;0.20;;;;;;;;;;5005743;28;20826;-42
2022/09/18 06:48:21;;;;;;;0.90;0.10;;;;;;;;;;5020792;28;20040;-41
2022/09/18 06:50:52;;;;;;;0.70;0.10;;;;;;;;;;5003570;28;20290;-41
2022/09/18 06:53:18;;;;;;;0.90;0.10;;;;;;;;;;5014807;28;20522;-40
2022/09/18 06:55:47;;;;;;;0.90;0.10;;;;;;;;;;5009855;28;20037;-40
2022/09/18 06:58:14;;;;;;;1.48;0.40;;;;;;;;;;5016867;28;20041;-40
2022/09/18 07:00:40;;;;;;;0.90;0.10;;;;;;;;;;5008655;28;20042;-41
2022/09/18 07:03:07;;;;;;;1.60;0.30;;;;;;;;;;5020109;28;20094;-41
2022/09/18 07:05:33;;;;;;;0.85;0.15;;;;;;;;;;5019210;28;20498;-40
2022/09/18 07:08:00;;;;;;;1.00;0.10;;;;;;;;;;5017871;28;20041;-40
2022/09/18 07:10:27;;;;;;;1.10;0.10;;;;;;;;;;5026808;28;20061;-40
2022/09/18 07:12:56;;;;;;;2.70;0.25;;;;;;;;;;4999379;28;20052;-41
2022/09/18 07:15:23;;;;;;;0.80;0.10;;;;;;;;;;5021653;28;20029;-42
2022/09/18 07:17:50;;;;;;;1.45;0.25;;;;;;;;;;5021698;28;20045;-40
2022/09/18 07:20:17;;;;;;;0.90;0.10;;;;;;;;;;5020483;28;20488;-40
2022/09/18 07:22:43;;;;;;;1.50;0.20;;;;;;;;;;5013785;28;20091;-41
2022/09/18 07:25:10;;;;;;;1.23;0.40;;;;;;;;;;5009793;28;20052;-40
2022/09/18 07:27:37;;;;;;;1.00;0.20;;;;;;;;;;5008656;28;20064;-42
2022/09/18 07:30:05;;;;;;;1.20;0.20;;;;;;;;;;5018561;28;20142;-42
2022/09/18 07:32:31;;;;;;;0.87;0.10;;;;;;;;;;5022507;28;20528;-41
2022/09/18 07:34:58;;;;;;;0.85;0.10;;;;;;;;;;4999372;28;20095;-41
2022/09/18 07:37:24;;;;;;;0.90;0.15;;;;;;;;;;5017983;28;20094;-41
2022/09/18 07:39:51;;;;;;;0.85;0.10;;;;;;;;;;5007174;28;20037;-40
2022/09/18 07:42:19;;;;;;;1.05;0.20;;;;;;;;;;5021105;28;20120;-40
2022/09/18 07:44:45;;;;;;;1.00;0.20;;;;;;;;;;5027646;28;20045;-42
2022/09/18 07:47:13;;;;;;;1.15;0.20;;;;;;;;;;5016323;28;20379;-41
2022/09/18 07:49:39;;;;;;;1.00;0.20;;;;;;;;;;5019968;28;20045;-40
2022/09/18 07:52:06;;;;;;;1.20;0.20;;;;;;;;;;5011147;28;20047;-41
2022/09/18 07:54:33;;;;;;;1.00;0.20;;;;;;;;;;5018817;28;20060;-41
2022/09/18 07:57:00;;;;;;;0.93;0.10;;;;;;;;;;5018304;28;20033;-42
2022/09/18 07:59:26;;;;;;;0.70;0.10;;;;;;;;;;5024078;28;20094;-41
2022/09/18 08:01:54;;;;;;;1.20;0.20;;;;;;;;;;5008019;28;20045;-43
2022/09/18 08:04:22;;;;;;;0.73;0.10;;;;;;;;;;5010694;28;20045;-42
2022/09/18 08:06:51;;;;;;;1.33;0.20;;;;;;;;;;5022292;28;20320;-43
2022/09/18 08:09:17;;;;;;;1.03;0.20;;;;;;;;;;5021971;28;20423;-41
2022/09/18 08:11:44;;;;;;;1.27;0.20;;;;;;;;;;5018563;28;20037;-41
2022/09/18 08:14:11;;;;;;;1.15;0.28;;;;;;;;;;5007782;28;20076;-42
2022/09/18 08:16:37;;;;;;;0.98;0.20;;;;;;;;;;5017332;28;20060;-40
2022/09/18 08:19:04;;;;;;;1.10;0.20;;;;;;;;;;5002739;28;20498;-42
2022/09/18 08:21:33;;;;;;;0.90;0.20;;;;;;;;;;5006205;28;20041;-42
2022/09/18 08:23:59;;;;;;;1.00;0.20;;;;;;;;;;5009749;28;20041;-41
2022/09/18 08:26:26;;;;;;;1.00;0.20;;;;;;;;;;5017515;28;20092;-41
2022/09/18 08:28:52;;;;;;;0.75;0.10;;;;;;;;;;5000152;28;20032;-40
2022/09/18 08:31:18;;;;;;;1.15;0.20;;;;;;;;;;5015133;28;20138;-40
2022/09/18 08:33:45;;;;;;;0.93;0.20;;;;;;;;;;5007947;28;20053;-40
2022/09/18 08:36:12;;;;;;;1.10;0.20;;;;;;;;;;5015963;28;20094;-42
2022/09/18 08:38:40;;;;;;;1.17;0.20;;;;;;;;;;4999294;28;20408;-41
2022/09/18 08:41:19;;;;;;;1.20;0.30;;;;;;;;;;5020991;28;20041;-42
2022/09/18 08:43:53;;;;;;;1.00;0.20;;;;;;;;;;4962132;28;20087;-42
2022/09/18 08:46:23;;;;;;;0.83;0.10;;;;;;;;;;4971316;28;20432;-41
2022/09/18 08:48:55;;;;;;;0.90;0.10;;;;;;;;;;4984435;28;20753;-44
2022/09/18 08:51:27;;;;;;;0.90;0.10;;;;;;;;;;4988586;28;20198;-41
2022/09/18 08:53:57;;;;;;;1.00;0.20;;;;;;;;;;4990956;28;20491;-41
2022/09/18 08:56:24;;;;;;;1.10;0.20;;;;;;;;;;4983551;28;20052;-40
2022/09/18 08:58:54;;;;;;;1.20;0.20;;;;;;;;;;5004700;28;20041;-40
2022/09/18 09:01:22;;;;;;;1.40;0.20;;;;;;;;;;5027432;28;20037;-39
2022/09/18 09:03:51;;;;;;;1.40;0.28;;;;;;;;;;5001419;28;20450;-41
2022/09/18 09:06:24;;;;;;;1.05;0.20;;;;;;;;;;5019561;28;20041;-40
2022/09/18 09:09:02;;;;;;;1.13;0.20;;;;;;;;;;4654850;28;10000200;-41
2022/09/18 09:11:31;;;;;;;0.90;0.10;;;;;;;;;;5016475;28;20310;-39
2022/09/18 09:14:04;;;;;;;1.45;0.25;;;;;;;;;;5003512;28;20041;-40
2022/09/18 09:16:34;;;;;;;1.00;0.20;;;;;;;;;;5010537;28;20045;-39
2022/09/18 09:19:01;;;;;;;1.65;0.30;;;;;;;;;;5003538;28;20044;-40
2022/09/18 09:21:41;;;;;;;1.20;0.20;;;;;;;;;;5011245;28;20041;-42
2022/09/18 09:24:19;;;;;;;1.15;0.25;;;;;;;;;;5011428;28;20044;-43
2022/09/18 09:26:47;;;;;;;1.17;0.20;;;;;;;;;;5007048;28;20048;-41
2022/09/18 09:29:18;;;;;;;1.00;0.20;;;;;;;;;;5006174;28;20752;-41
2022/09/18 09:31:46;;;;;;;1.38;0.20;;;;;;;;;;5003775;28;20130;-42
2022/09/18 09:34:16;;;;;;;1.20;0.20;;;;;;;;;;5011149;28;20498;-43
2022/09/18 09:36:46;;;;;;;0.90;0.20;;;;;;;;;;5005170;28;20041;-43
2022/09/18 09:39:18;;;;;;;1.30;0.30;;;;;;;;;;5014669;28;20041;-40
2022/09/18 09:41:46;;;;;;;2.53;0.70;;;;;;;;;;5005889;28;20585;-40
2022/09/18 09:44:23;;;;;;;1.40;0.40;;;;;;;;;;5007524;28;20098;-40
2022/09/18 09:47:00;;;;;;;1.15;0.20;;;;;;;;;;5008761;28;20045;-39
2022/09/18 09:49:28;;;;;;;1.95;0.70;;;;;;;;;;5007807;28;20052;-39
2022/09/18 09:52:00;;;;;;;0.90;0.13;;;;;;;;;;5005066;28;20399;-41
2022/09/18 09:54:28;;;;;;;1.13;0.20;;;;;;;;;;5016253;28;20491;-39
2022/09/18 09:57:02;;;;;;;1.10;0.20;;;;;;;;;;5007244;28;20540;-41
2022/09/18 09:59:32;;;;;;;1.20;0.20;;;;;;;;;;5009838;28;20077;-39
2022/09/18 10:02:01;;;;;;;1.02;0.20;;;;;;;;;;5017098;28;20438;-39
2022/09/18 10:04:31;;;;;;;1.17;0.22;;;;;;;;;;5009737;28;21153;-38
2022/09/18 10:07:00;;;;;;;1.03;0.10;;;;;;;;;;5021149;28;20057;-40
2022/09/18 10:09:34;;;;;;;1.20;0.20;;;;;;;;;;5003918;28;20041;-40
2022/09/18 10:12:03;;;;;;;1.30;0.30;;;;;;;;;;5018287;28;20059;-42
2022/09/18 10:14:31;;;;;;;1.27;0.30;;;;;;;;;;5008658;28;20136;-43
2022/09/18 10:16:57;;;;;;;1.20;0.20;;;;;;;;;;5017635;28;20110;-42
2022/09/18 10:19:30;;;;;;;1.47;0.30;;;;;;;;;;4999727;28;20322;-43
2022/09/18 10:21:56;;;;;;;1.00;0.20;;;;;;;;;;5024981;28;20052;-42
2022/09/18 10:24:26;;;;;;;1.17;0.30;;;;;;;;;;5001386;28;20037;-41
2022/09/18 10:26:58;;;;;;;1.05;0.28;;;;;;;;;;5014372;28;20041;-41
2022/09/18 10:29:25;;;;;;;1.05;0.20;;;;;;;;;;5015198;28;20061;-41
2022/09/18 10:31:52;;;;;;;1.07;0.20;;;;;;;;;;5018163;28;20073;-40
2022/09/18 10:34:33;;;;;;;1.65;0.30;;;;;;;;;;5005796;28;20033;-41
2022/09/18 10:36:59;;;;;;;1.30;0.28;;;;;;;;;;5010570;28;20049;-42
2022/09/18 10:39:28;;;;;;;1.43;0.20;;;;;;;;;;4645668;28;10000044;-41
2022/09/18 10:41:58;;;;;;;1.30;0.20;;;;;;;;;;5015443;28;20560;-42
2022/09/18 10:44:27;;;;;;;1.40;0.40;;;;;;;;;;5012420;28;20578;-41
2022/09/18 10:46:55;;;;;;;1.38;0.30;;;;;;;;;;5011879;28;20072;-40
2022/09/18 10:49:24;;;;;;;1.87;0.40;;;;;;;;;;5011723;28;20052;-41
2022/09/18 10:52:13;;;;;;;1.33;0.22;;;;;;;;;;5008257;28;20060;-40
2022/09/18 10:54:39;;;;;;;1.30;0.20;;;;;;;;;;5014238;28;20041;-41
2022/09/18 11:33:47;;;;;;;1.23;0.20;;;;;;;;;;6168161;22;1490912;-39
2022/09/18 11:36:16;;;;;;;1.40;0.30;;;;;;;;;;6185161;23;20790;-40
2022/09/18 11:38:44;;;;;;;1.50;0.30;;;;;;;;;;6196210;23;20017;-41
2022/09/18 11:41:12;;;;;;;1.53;0.40;;;;;;;;;;6190977;23;20027;-39
2022/09/18 11:43:39;;;;;;;1.23;0.25;;;;;;;;;;6196158;23;20024;-41
2022/09/18 11:46:12;;;;;;;1.60;0.40;;;;;;;;;;6163524;23;20008;-40
2022/09/18 11:48:43;;;;;;;1.67;0.40;;;;;;;;;;6171857;23;20107;-40
2022/09/18 11:51:15;;;;;;;2.80;0.50;;;;;;;;;;6133913;23;20017;-40
2022/09/18 11:53:43;;;;;;;1.63;0.33;;;;;;;;;;6122483;23;20348;-39
2022/09/18 11:56:14;;;;;;;1.58;0.40;;;;;;;;;;6121575;23;20095;-40
2022/09/18 11:58:43;;;;;;;1.30;0.25;;;;;;;;;;6143215;23;20025;-39
2022/09/18 12:01:13;;;;;;;1.40;0.30;;;;;;;;;;6162109;23;20067;-39
2022/09/18 12:03:42;;;;;;;1.42;0.30;;;;;;;;;;6166166;23;20370;-39
2022/09/18 12:06:14;;;;;;;1.30;0.30;;;;;;;;;;6154923;23;20362;-41
2022/09/18 12:08:44;;;;;;;1.67;0.38;;;;;;;;;;6162044;23;20538;-39
2022/09/18 12:11:16;;;;;;;1.30;0.30;;;;;;;;;;6153076;23;20023;-45
2022/09/18 12:13:47;;;;;;;1.23;0.20;;;;;;;;;;6150067;23;20032;-43
2022/09/18 12:16:17;;;;;;;1.60;0.30;;;;;;;;;;6140813;23;20068;-40
2022/09/18 12:18:48;;;;;;;1.40;0.20;;;;;;;;;;6157296;23;20017;-40
2022/09/18 12:21:18;;;;;;;1.10;0.20;;;;;;;;;;6154546;23;20059;-40
2022/09/18 12:23:44;;;;;;;1.13;0.20;;;;;;;;;;6157989;23;20438;-43
2022/09/18 12:26:14;;;;;;;1.05;0.20;;;;;;;;;;6151866;23;20021;-40
2022/09/18 12:28:44;;;;;;;1.27;0.20;;;;;;;;;;6150492;23;20016;-40
2022/09/18 12:31:15;;;;;;;1.67;0.33;;;;;;;;;;6152227;23;20443;-40
2022/09/18 12:33:48;;;;;;;1.60;0.40;;;;;;;;;;6177001;23;20078;-40
2022/09/18 12:36:37;;;;;;;1.30;0.30;;;;;;;;;;6163476;23;20008;-42
2022/09/18 12:39:13;;;;;;;1.73;0.40;;;;;;;;;;6177314;23;20024;-40
2022/09/18 12:41:46;;;;;;;1.30;0.30;;;;;;;;;;6185894;23;20463;-39
2022/09/18 12:44:25;;;;;;;1.37;0.30;;;;;;;;;;6157396;23;20124;-41
2022/09/18 12:47:05;;;;;;;1.30;0.25;;;;;;;;;;6181806;23;20020;-40
2022/09/18 12:49:41;;;;;;;1.58;0.43;;;;;;;;;;6176313;23;20371;-40
2022/09/18 12:52:13;;;;;;;1.40;0.30;;;;;;;;;;6175506;23;20063;-39
2022/09/18 12:54:49;;;;;;;1.45;0.32;;;;;;;;;;6183569;23;20016;-39
2022/09/18 12:57:20;;;;;;;1.60;0.40;;;;;;;;;;6154789;23;20020;-39
2022/09/18 12:59:53;;;;;;;1.92;0.45;;;;;;;;;;6181256;23;20029;-38
2022/09/18 13:02:28;;;;;;;1.58;0.38;;;;;;;;;;6180891;23;20031;-39
2022/09/18 13:04:56;;;;;;;1.60;0.30;;;;;;;;;;6178904;23;20377;-39
2022/09/18 13:07:25;;;;;;;1.05;0.20;;;;;;;;;;6183843;23;20016;-39
2022/09/18 13:09:55;;;;;;;1.10;0.20;;;;;;;;;;6181085;23;20074;-41
2022/09/18 13:12:25;;;;;;;1.63;0.30;;;;;;;;;;6182951;23;20017;-40
2022/09/18 13:14:53;;;;;;;2.75;0.30;;;;;;;;;;6149043;23;20016;-39
2022/09/18 13:17:22;;;;;;;1.73;0.40;;;;;;;;;;6178185;23;20031;-39
2022/09/18 13:19:52;;;;;;;2.25;0.60;;;;;;;;;;6182007;23;20055;-41
2022/09/18 13:22:19;;;;;;;1.60;0.40;;;;;;;;;;6174147;23;20017;-41
2022/09/18 13:24:50;;;;;;;1.70;0.30;;;;;;;;;;6175204;23;20016;-40
2022/09/18 13:27:18;;;;;;;1.50;0.30;;;;;;;;;;6180262;23;20021;-41
2022/09/18 13:29:55;;;;;;;2.13;0.52;;;;;;;;;;6186108;23;20510;-39
2022/09/18 13:32:22;;;;;;;1.35;0.20;;;;;;;;;;6156112;23;20013;-39
2022/09/18 13:34:51;;;;;;;1.40;0.40;;;;;;;;;;6144243;23;20063;-40
2022/09/18 13:37:21;;;;;;;1.50;0.40;;;;;;;;;;6191369;23;20099;-39
2022/09/18 13:39:55;;;;;;;1.88;0.43;;;;;;;;;;6168742;23;20514;-40
2022/09/18 13:42:29;;;;;;;1.48;0.30;;;;;;;;;;6174144;23;20017;-39
2022/09/18 13:45:00;;;;;;;1.40;0.30;;;;;;;;;;6185550;23;20267;-39
2022/09/18 13:47:28;;;;;;;1.40;0.30;;;;;;;;;;6177497;23;20431;-42
2022/09/18 13:49:56;;;;;;;1.42;0.30;;;;;;;;;;6177059;23;20032;-40
2022/09/18 13:52:41;;;;;;;1.70;0.45;;;;;;;;;;6177585;23;20016;-40
2022/09/18 13:55:24;;;;;;;1.38;0.30;;;;;;;;;;6167363;23;20095;-40
2022/09/18 13:57:53;;;;;;;1.73;0.40;;;;;;;;;;6181506;23;20108;-41
2022/09/18 14:00:39;;;;;;;1.87;0.50;;;;;;;;;;6152808;23;20016;-40
2022/09/18 14:03:24;;;;;;;1.50;0.35;;;;;;;;;;6142840;23;20324;-42
2022/09/18 14:05:51;;;;;;;1.90;0.50;;;;;;;;;;6160647;23;20358;-41
2022/09/18 14:08:36;;;;;;;1.50;0.30;;;;;;;;;;6174654;23;20379;-41
2022/09/18 14:11:07;;;;;;;1.63;0.40;;;;;;;;;;6181740;23;20020;-40
2022/09/18 14:13:37;;;;;;;1.60;0.40;;;;;;;;;;6149548;23;20494;-43
2022/09/18 14:16:06;;;;;;;1.50;0.38;;;;;;;;;;6175595;23;20395;-40
2022/09/18 14:18:35;;;;;;;1.30;0.20;;;;;;;;;;6174842;23;20151;-41
2022/09/18 14:21:13;;;;;;;1.42;0.32;;;;;;;;;;6168702;23;20017;-39
2022/09/18 14:23:50;;;;;;;1.67;0.40;;;;;;;;;;6176525;23;20023;-39
2022/09/18 14:26:33;;;;;;;1.70;0.40;;;;;;;;;;6176752;23;20324;-43
2022/09/18 14:29:04;;;;;;;2.42;0.55;;;;;;;;;;6174785;23;20091;-40
2022/09/18 14:31:34;;;;;;;1.70;0.38;;;;;;;;;;6185099;23;20017;-42
2022/09/18 14:34:02;;;;;;;2.25;0.63;;;;;;;;;;6167266;23;20538;-42
2022/09/18 14:36:42;;;;;;;1.45;0.30;;;;;;;;;;6187967;23;20494;-40
2022/09/18 14:39:21;;;;;;;1.40;0.30;;;;;;;;;;6183653;23;20459;-42
2022/09/18 14:41:48;;;;;;;1.25;0.25;;;;;;;;;;6184623;23;20746;-41
2022/09/18 14:44:17;;;;;;;1.35;0.38;;;;;;;;;;6183550;23;20092;-40
2022/09/18 14:46:52;;;;;;;1.10;0.20;;;;;;;;;;6176500;23;20023;-40
2022/09/18 14:49:24;;;;;;;1.48;0.38;;;;;;;;;;6183703;23;20023;-40
2022/09/18 14:51:51;;;;;;;1.50;0.30;;;;;;;;;;6181599;23;20094;-39
2022/09/18 14:54:20;;;;;;;1.40;0.30;;;;;;;;;;6181099;23;20016;-40
2022/09/18 14:56:48;;;;;;;1.30;0.30;;;;;;;;;;6186502;23;20012;-40
2022/09/18 14:59:17;;;;;;;1.25;0.28;;;;;;;;;;6182955;23;20432;-39
2022/09/18 15:01:44;;;;;;;1.48;0.30;;;;;;;;;;6182079;23;20023;-40
2022/09/18 15:04:13;;;;;;;1.30;0.20;;;;;;;;;;6185799;23;20024;-40
2022/09/18 15:06:43;;;;;;;1.67;0.45;;;;;;;;;;6178037;23;20017;-41
2022/09/18 15:09:11;;;;;;;1.73;0.40;;;;;;;;;;6170212;23;20153;-40
2022/09/18 15:11:40;;;;;;;1.45;0.30;;;;;;;;;;6184596;23;20354;-39
2022/09/18 15:14:19;;;;;;;1.45;0.35;;;;;;;;;;6174850;23;20528;-40
2022/09/18 15:16:53;;;;;;;1.57;0.33;;;;;;;;;;6183518;23;20346;-40
2022/09/18 15:19:20;;;;;;;2.00;0.50;;;;;;;;;;6176372;23;20017;-40
2022/09/18 15:21:48;;;;;;;1.38;0.30;;;;;;;;;;6169861;23;20071;-40
2022/09/18 15:24:15;;;;;;;1.10;0.20;;;;;;;;;;6172052;23;20016;-41
2022/09/18 15:26:44;;;;;;;1.38;0.30;;;;;;;;;;6143908;23;20025;-39
2022/09/18 15:29:17;;;;;;;1.33;0.23;;;;;;;;;;6135436;23;20516;-41
2022/09/18 15:31:45;;;;;;;1.80;0.40;;;;;;;;;;6162058;23;20027;-40